Time;durP1;ratioP1;P1;durP2;ratioP2;P2;SDS_P1;SDS_P2;PMS_P1;PMS_P2;Temp;Humidity;BMP_temperature;BMP_pressure;BME280_temperature;BME280_humidity;BME280_pressure;Samples;Min_cycle;Max_cycle;Signal;HPM_P1;HPM_P2
2022/09/19 00:00:41;;;;;;;5.72;3.25;;;10.10;99.90;;;;;;5009607;28;20076;-46
2022/09/19 00:03:06;;;;;;;9.70;3.85;;;10.10;99.90;;;;;;5009370;28;20057;-47
2022/09/19 00:05:32;;;;;;;6.47;3.88;;;10.10;99.90;;;;;;5009659;28;20156;-46
2022/09/19 00:07:58;;;;;;;11.23;4.03;;;10.10;99.90;;;;;;5009470;28;20025;-48
2022/09/19 00:10:23;;;;;;;20.65;4.40;;;10.10;99.90;;;;;;5009697;28;20148;-47
2022/09/19 00:12:49;;;;;;;11.68;4.50;;;10.10;99.90;;;;;;5008885;28;20399;-46
2022/09/19 00:15:14;;;;;;;8.50;3.75;;;10.10;99.90;;;;;;5009135;28;20241;-47
2022/09/19 00:17:40;;;;;;;8.73;4.32;;;10.10;99.90;;;;;;5009089;28;20563;-46
2022/09/19 00:20:06;;;;;;;9.43;5.03;;;10.10;99.90;;;;;;5007759;28;20050;-46
2022/09/19 00:22:32;;;;;;;12.75;4.57;;;10.10;99.90;;;;;;5008464;28;20033;-48
2022/09/19 00:24:58;;;;;;;10.38;4.63;;;10.10;99.90;;;;;;5009391;28;20025;-48
2022/09/19 00:27:25;;;;;;;15.80;4.60;;;10.10;99.90;;;;;;5008879;28;20054;-46
2022/09/19 00:29:53;;;;;;;10.23;4.00;;;10.10;99.90;;;;;;5008868;28;20247;-47
2022/09/19 00:32:20;;;;;;;5.97;4.40;;;10.10;99.90;;;;;;5008610;28;20029;-46
2022/09/19 00:34:48;;;;;;;11.40;4.88;;;10.10;99.90;;;;;;5007495;28;20435;-46
2022/09/19 00:37:15;;;;;;;9.00;4.45;;;10.10;99.90;;;;;;5009219;28;20026;-46
2022/09/19 00:39:41;;;;;;;5.32;3.88;;;10.10;99.90;;;;;;5008996;28;20102;-46
2022/09/19 00:42:23;;;;;;;5.75;3.83;;;10.10;99.90;;;;;;5008710;28;20042;-47
2022/09/19 00:44:58;;;;;;;11.77;4.38;;;10.10;99.90;;;;;;5009038;28;20037;-46
2022/09/19 00:47:33;;;;;;;6.70;4.00;;;10.20;99.90;;;;;;5007795;28;20026;-46
2022/09/19 00:50:01;;;;;;;9.27;4.70;;;10.20;99.90;;;;;;5007859;28;20076;-46
2022/09/19 00:52:40;;;;;;;6.35;4.57;;;10.20;99.90;;;;;;5008196;28;20487;-46
2022/09/19 00:55:06;;;;;;;5.05;3.80;;;10.20;99.90;;;;;;5007326;28;20533;-46
2022/09/19 00:57:58;;;;;;;5.38;3.85;;;10.20;99.90;;;;;;5008924;28;20022;-45
2022/09/19 01:00:24;;;;;;;11.88;4.38;;;10.20;99.90;;;;;;5008601;28;20054;-46
2022/09/19 01:02:51;;;;;;;5.13;3.92;;;10.20;99.90;;;;;;5006756;28;20492;-46
2022/09/19 01:05:21;;;;;;;6.45;4.07;;;10.20;99.90;;;;;;5008465;28;20108;-46
2022/09/19 01:08:08;;;;;;;5.35;4.07;;;10.20;99.90;;;;;;5008707;28;20072;-47
2022/09/19 01:10:48;;;;;;;7.43;4.40;;;10.20;99.90;;;;;;5008911;28;20026;-48
2022/09/19 01:13:31;;;;;;;6.25;3.80;;;10.20;99.90;;;;;;5008189;28;20165;-47
2022/09/19 01:16:01;;;;;;;8.93;4.50;;;10.20;99.90;;;;;;5008590;28;20226;-47
2022/09/19 01:18:30;;;;;;;;;;;10.20;99.90;;;;;;5008844;28;20030;-46
2022/09/19 01:24:19;;;;;;;9.48;3.92;;;10.20;99.90;;;;;;5008011;28;20044;-46
2022/09/19 01:26:58;;;;;;;7.20;3.80;;;10.20;99.90;;;;;;5008303;28;20045;-45
2022/09/19 01:29:40;;;;;;;7.03;3.60;;;10.20;99.90;;;;;;5006963;28;20534;-45
2022/09/19 01:32:10;;;;;;;6.47;3.83;;;10.20;99.90;;;;;;5007294;28;20066;-46
2022/09/19 01:34:42;;;;;;;10.27;3.42;;;10.20;99.90;;;;;;5008208;28;20480;-46
2022/09/19 01:37:17;;;;;;;5.25;3.08;;;10.20;99.90;;;;;;5008779;28;20081;-46
2022/09/19 01:39:46;;;;;;;4.82;3.22;;;10.20;99.90;;;;;;5008233;28;20106;-46
2022/09/19 01:42:13;;;;;;;5.75;3.45;;;10.20;99.90;;;;;;5008042;28;20318;-46
2022/09/19 01:44:39;;;;;;;5.43;3.10;;;10.20;99.90;;;;;;5008033;28;20038;-45
2022/09/19 01:47:08;;;;;;;7.13;3.38;;;10.20;99.90;;;;;;5010243;28;20034;-46
2022/09/19 01:49:57;;;;;;;4.10;2.85;;;10.20;99.90;;;;;;5011866;28;20022;-46
2022/09/19 01:53:00;;;;;;;4.95;2.70;;;10.20;99.90;;;;;;5011359;28;20364;-47
2022/09/19 01:55:48;;;;;;;4.22;2.50;;;10.20;99.90;;;;;;5011684;28;20021;-45
2022/09/19 01:58:25;;;;;;;4.13;2.50;;;10.20;99.90;;;;;;5011056;28;20045;-45
2022/09/19 02:01:05;;;;;;;4.90;2.33;;;10.20;99.90;;;;;;5011918;28;20045;-46
2022/09/19 02:03:50;;;;;;;4.40;2.10;;;10.20;99.90;;;;;;5011171;28;20026;-47
2022/09/19 02:06:24;;;;;;;3.17;2.15;;;10.20;99.90;;;;;;5010194;28;20026;-46
2022/09/19 02:09:10;;;;;;;3.33;2.10;;;10.10;99.90;;;;;;5011535;28;20022;-46
2022/09/19 02:25:11;;;;;;;2.72;1.63;;;10.00;99.90;;;;;;5011640;28;20028;-45
2022/09/19 02:27:42;;;;;;;4.55;1.92;;;10.00;99.90;;;;;;5011818;28;20030;-45
2022/09/19 02:30:09;;;;;;;3.78;1.45;;;10.00;99.90;;;;;;5011498;28;20030;-46
2022/09/19 02:32:36;;;;;;;4.90;1.70;;;9.90;99.90;;;;;;5010843;28;20415;-46
2022/09/19 02:35:04;;;;;;;10.70;2.45;;;9.90;99.90;;;;;;5010108;28;20038;-45
2022/09/19 02:37:41;;;;;;;2.38;1.33;;;9.90;99.90;;;;;;5011410;28;20018;-45
2022/09/19 02:40:28;;;;;;;4.00;1.70;;;9.90;99.90;;;;;;5011749;28;20017;-45
2022/09/19 02:42:56;;;;;;;3.22;1.23;;;9.90;99.90;;;;;;5010944;28;20268;-46
2022/09/19 02:45:37;;;;;;;3.20;1.45;;;9.90;99.90;;;;;;5011178;28;20049;-46
2022/09/19 02:48:18;;;;;;;1.15;1.10;;;9.90;99.90;;;;;;5011485;28;20258;-46
2022/09/19 02:50:43;;;;;;;;;;;9.80;99.90;;;;;;5010225;28;20536;-46
2022/09/19 02:53:16;;;;;;;5.75;2.30;;;9.80;99.90;;;;;;5010604;28;20007;-46
2022/09/19 02:55:47;;;;;;;2.95;1.50;;;9.80;99.90;;;;;;5010996;28;20022;-45
2022/09/19 02:58:15;;;;;;;5.65;1.55;;;9.80;99.90;;;;;;5009849;28;20026;-45
2022/09/19 03:00:48;;;;;;;2.45;1.27;;;9.80;99.90;;;;;;5009605;28;20025;-46
2022/09/19 03:06:20;;;;;;;3.97;1.52;;;9.70;99.90;;;;;;4998954;28;20512;-48
2022/09/19 03:08:50;;;;;;;3.03;1.33;;;9.70;99.90;;;;;;5011159;28;20045;-46
2022/09/19 03:11:19;;;;;;;5.65;1.63;;;9.70;99.90;;;;;;5009661;28;20539;-46
2022/09/19 03:13:45;;;;;;;2.38;1.35;;;9.60;99.90;;;;;;5010611;28;20512;-47
2022/09/19 03:16:17;;;;;;;4.15;1.50;;;9.60;99.90;;;;;;5010834;28;20458;-49
2022/09/19 03:18:46;;;;;;;2.42;1.30;;;9.60;99.90;;;;;;5010715;28;20049;-47
2022/09/19 03:21:13;;;;;;;3.40;1.48;;;9.60;99.90;;;;;;5010507;28;20018;-47
2022/09/19 03:23:44;;;;;;;4.32;1.30;;;9.60;99.90;;;;;;5009932;28;20025;-48
2022/09/19 03:26:13;;;;;;;4.80;1.27;;;9.60;99.90;;;;;;5010453;28;20061;-49
2022/09/19 03:28:39;;;;;;;2.85;1.40;;;9.60;99.90;;;;;;5010327;28;20114;-47
2022/09/19 03:31:06;;;;;;;4.68;1.55;;;9.50;99.90;;;;;;5010465;28;20022;-46
2022/09/19 03:33:32;;;;;;;1.55;1.40;;;9.50;99.90;;;;;;5010057;28;20026;-47
2022/09/19 03:35:59;;;;;;;4.63;1.80;;;9.50;99.90;;;;;;5010618;28;20030;-47
2022/09/19 03:38:26;;;;;;;5.95;2.10;;;9.50;99.90;;;;;;5010115;28;20022;-48
2022/09/19 03:40:51;;;;;;;5.78;2.10;;;9.50;99.90;;;;;;5010425;28;20572;-47
2022/09/19 03:43:17;;;;;;;4.45;1.80;;;9.50;99.90;;;;;;5008547;28;20079;-47
2022/09/19 03:45:43;;;;;;;3.58;2.10;;;9.50;99.90;;;;;;5010018;28;20079;-46
2022/09/19 03:48:08;;;;;;;5.20;2.58;;;9.50;99.90;;;;;;5008644;28;20029;-46
2022/09/19 03:50:34;;;;;;;5.55;2.40;;;9.50;99.90;;;;;;5009883;28;20661;-46
2022/09/19 03:53:00;;;;;;;4.18;2.13;;;9.50;99.90;;;;;;5009523;28;20033;-45
2022/09/19 03:55:26;;;;;;;4.57;2.20;;;9.50;99.90;;;;;;5009791;28;20014;-45
2022/09/19 03:57:51;;;;;;;6.00;2.55;;;9.50;99.90;;;;;;5009938;28;20048;-46
2022/09/19 04:00:17;;;;;;;8.05;3.03;;;9.50;99.90;;;;;;5009750;28;20392;-46
2022/09/19 04:02:43;;;;;;;4.78;3.20;;;9.50;99.90;;;;;;5008085;28;20026;-45
2022/09/19 04:05:09;;;;;;;7.88;3.75;;;9.50;99.90;;;;;;5009848;28;20026;-47
2022/09/19 04:07:37;;;;;;;6.13;3.92;;;9.50;99.90;;;;;;5008366;28;20025;-46
2022/09/19 04:10:04;;;;;;;8.23;3.75;;;9.50;99.90;;;;;;5009328;28;20096;-47
2022/09/19 04:12:30;;;;;;;7.22;3.67;;;9.40;99.90;;;;;;5009376;28;20105;-45
2022/09/19 04:14:56;;;;;;;5.32;4.10;;;9.50;99.90;;;;;;5009496;28;20022;-45
2022/09/19 04:17:21;;;;;;;6.30;4.82;;;9.50;99.90;;;;;;5009548;28;20018;-46
2022/09/19 04:19:48;;;;;;;8.43;4.75;;;9.50;99.90;;;;;;5009814;28;20029;-45
2022/09/19 04:22:13;;;;;;;8.45;5.32;;;9.50;99.90;;;;;;5009755;28;20101;-45
2022/09/19 04:24:42;;;;;;;12.48;5.43;;;9.50;99.90;;;;;;5008941;28;20113;-44
2022/09/19 04:27:11;;;;;;;15.48;6.38;;;9.50;99.90;;;;;;5009169;28;20026;-45
2022/09/19 04:29:36;;;;;;;12.60;5.43;;;9.50;99.90;;;;;;5009471;28;20109;-45
2022/09/19 04:32:02;;;;;;;12.57;6.18;;;9.60;99.90;;;;;;5009578;28;20460;-47
2022/09/19 04:34:28;;;;;;;13.23;7.28;;;9.60;99.90;;;;;;5008844;28;20034;-45
2022/09/19 04:36:56;;;;;;;16.38;7.15;;;9.60;99.90;;;;;;5007941;28;20025;-48
2022/09/19 04:39:22;;;;;;;11.02;7.22;;;9.60;99.90;;;;;;5009231;28;20020;-44
2022/09/19 04:41:52;;;;;;;9.90;7.50;;;9.50;99.90;;;;;;5009382;28;20064;-46
2022/09/19 04:44:18;;;;;;;15.93;8.17;;;9.60;99.90;;;;;;5007310;28;20025;-47
2022/09/19 04:46:44;;;;;;;15.80;8.30;;;9.60;99.90;;;;;;5009176;28;20044;-46
2022/09/19 04:49:11;;;;;;;14.55;8.75;;;9.60;99.90;;;;;;5009049;28;20049;-44
2022/09/19 04:51:37;;;;;;;11.57;8.52;;;9.60;99.90;;;;;;5007641;28;20069;-46
2022/09/19 04:54:05;;;;;;;12.65;8.52;;;9.60;99.90;;;;;;5008530;28;20670;-46
2022/09/19 04:56:30;;;;;;;19.48;8.63;;;9.60;99.90;;;;;;5008858;28;20491;-45
2022/09/19 04:58:58;;;;;;;17.75;9.85;;;9.70;99.90;;;;;;5009273;28;20025;-47
2022/09/19 05:01:25;;;;;;;16.95;8.73;;;9.70;99.90;;;;;;5009095;28;20010;-44
2022/09/19 05:03:51;;;;;;;17.42;8.65;;;9.70;99.90;;;;;;5008557;28;20030;-45
2022/09/19 05:06:17;;;;;;;17.65;8.25;;;9.70;99.90;;;;;;5008949;28;20364;-45
2022/09/19 05:08:43;;;;;;;19.85;9.25;;;9.80;99.90;;;;;;5008767;28;20030;-45
2022/09/19 05:11:10;;;;;;;10.88;8.35;;;9.70;99.90;;;;;;5008660;28;20025;-47
2022/09/19 05:13:40;;;;;;;15.82;9.73;;;9.80;99.90;;;;;;5008356;28;20037;-47
2022/09/19 05:16:07;;;;;;;12.18;9.38;;;9.80;99.90;;;;;;5007616;28;20042;-46
2022/09/19 05:18:35;;;;;;;15.05;8.80;;;9.70;99.90;;;;;;5007282;28;20030;-47
2022/09/19 05:21:11;;;;;;;13.48;8.65;;;9.80;99.90;;;;;;5009027;28;20018;-46
2022/09/19 05:23:38;;;;;;;12.00;8.20;;;9.80;99.90;;;;;;5012385;28;20395;-47
2022/09/19 05:26:06;;;;;;;16.27;8.65;;;9.80;99.90;;;;;;5011629;28;20057;-45
2022/09/19 05:28:31;;;;;;;14.80;8.35;;;9.80;99.90;;;;;;5011548;28;20022;-47
2022/09/19 05:30:57;;;;;;;11.07;8.13;;;9.80;99.90;;;;;;5012518;28;20129;-47
2022/09/19 05:33:28;;;;;;;14.10;8.32;;;9.80;99.90;;;;;;5012067;28;20099;-45
2022/09/19 05:35:55;;;;;;;21.45;8.48;;;9.80;99.90;;;;;;5012441;28;20076;-47
2022/09/19 05:38:22;;;;;;;18.13;8.00;;;9.80;99.90;;;;;;5012487;28;20018;-46
2022/09/19 05:40:57;;;;;;;14.20;8.80;;;9.90;99.90;;;;;;5012499;28;20022;-47
2022/09/19 05:43:23;;;;;;;10.45;8.02;;;9.80;99.90;;;;;;5012124;28;20033;-45
2022/09/19 05:45:52;;;;;;;16.50;8.30;;;9.80;99.90;;;;;;5012571;28;20044;-45
2022/09/19 05:48:19;;;;;;;8.70;6.88;;;9.80;99.90;;;;;;5012198;28;20084;-47
2022/09/19 05:50:46;;;;;;;12.27;7.20;;;9.90;99.90;;;;;;5012173;28;20113;-45
2022/09/19 05:55:57;;;;;;;14.13;7.15;;;10.00;99.90;;;;;;5012286;28;20507;-45
2022/09/19 05:58:24;;;;;;;17.00;7.07;;;10.00;99.90;;;;;;5012043;28;20115;-48
2022/09/19 06:00:50;;;;;;;11.32;6.55;;;10.00;99.90;;;;;;5012431;28;20022;-46
2022/09/19 06:03:16;;;;;;;15.18;6.45;;;10.00;99.90;;;;;;5010043;28;20032;-47
2022/09/19 06:05:45;;;;;;;15.02;6.57;;;10.00;99.90;;;;;;5010838;28;20061;-45
2022/09/19 06:08:11;;;;;;;11.07;6.47;;;10.10;99.90;;;;;;5010607;28;20051;-45
2022/09/19 06:10:38;;;;;;;13.35;5.93;;;10.10;99.90;;;;;;5012076;28;20547;-47
2022/09/19 06:13:15;;;;;;;11.70;5.72;;;10.10;99.90;;;;;;5011223;28;20077;-49
2022/09/19 06:15:41;;;;;;;14.50;6.20;;;10.10;99.90;;;;;;5011638;28;20448;-46
2022/09/19 06:18:09;;;;;;;9.52;5.57;;;10.20;99.90;;;;;;5011553;28;20026;-46
2022/09/19 06:20:34;;;;;;;12.05;6.30;;;10.30;99.90;;;;;;5011790;28;20522;-48
2022/09/19 06:23:02;;;;;;;6.88;4.95;;;10.30;99.90;;;;;;5011377;28;20034;-46
2022/09/19 06:25:29;;;;;;;6.88;4.82;;;10.20;99.90;;;;;;5010274;28;20072;-45
2022/09/19 06:27:59;;;;;;;10.13;6.30;;;10.30;99.90;;;;;;5011798;28;20425;-46
2022/09/19 06:30:26;;;;;;;10.05;6.18;;;10.20;99.90;;;;;;5011638;28;20029;-48
2022/09/19 06:32:52;;;;;;;11.45;5.93;;;10.20;99.90;;;;;;5011015;28;20384;-46
2022/09/19 06:35:22;;;;;;;14.05;7.78;;;10.30;99.90;;;;;;5011434;28;20057;-46
2022/09/19 06:37:48;;;;;;;10.73;5.85;;;10.40;99.90;;;;;;5010145;28;20463;-45
2022/09/19 06:40:17;;;;;;;8.82;6.47;;;10.40;99.90;;;;;;5011294;28;20105;-46
2022/09/19 06:42:42;;;;;;;9.35;6.10;;;10.40;99.90;;;;;;5010776;28;20068;-46
2022/09/19 06:45:08;;;;;;;19.38;7.10;;;10.50;99.90;;;;;;5011674;28;20021;-46
2022/09/19 06:47:35;;;;;;;13.07;6.55;;;10.50;99.90;;;;;;5009734;28;20471;-46
2022/09/19 06:50:01;;;;;;;15.85;7.57;;;10.60;99.90;;;;;;5009658;28;20026;-46
2022/09/19 06:52:27;;;;;;;12.25;7.15;;;10.60;99.90;;;;;;5009444;28;20230;-45
2022/09/19 06:54:52;;;;;;;10.75;5.60;;;10.70;99.90;;;;;;5009638;28;20043;-46
2022/09/19 06:57:18;;;;;;;16.73;6.63;;;10.70;99.90;;;;;;5010813;28;20029;-47
2022/09/19 06:59:44;;;;;;;13.00;7.05;;;10.80;99.90;;;;;;5011025;28;20044;-49
2022/09/19 07:02:10;;;;;;;13.80;6.20;;;10.80;99.90;;;;;;5011118;28;20022;-46
2022/09/19 07:04:36;;;;;;;10.73;5.65;;;10.90;99.90;;;;;;5010659;28;20018;-46
2022/09/19 07:07:02;;;;;;;18.48;6.90;;;10.90;99.90;;;;;;5010761;28;20045;-46
2022/09/19 07:09:27;;;;;;;12.18;5.90;;;11.00;99.90;;;;;;5010783;28;20030;-47
2022/09/19 07:11:56;;;;;;;14.13;5.80;;;11.10;99.90;;;;;;5009220;28;20033;-47
2022/09/19 07:14:22;;;;;;;15.20;5.57;;;11.10;99.90;;;;;;5010372;28;20025;-46
2022/09/19 07:16:48;;;;;;;16.00;5.40;;;11.20;99.90;;;;;;5010714;28;20018;-48
2022/09/19 07:19:13;;;;;;;14.80;5.05;;;11.10;99.90;;;;;;5010369;28;20075;-48
2022/09/19 07:21:39;;;;;;;11.00;5.43;;;11.00;99.90;;;;;;5010369;28;20534;-45
2022/09/19 07:24:06;;;;;;;14.45;5.40;;;11.00;99.90;;;;;;5009907;28;20034;-46
2022/09/19 07:26:32;;;;;;;9.75;5.07;;;11.00;99.90;;;;;;5009041;28;20488;-48
2022/09/19 07:28:57;;;;;;;12.40;6.05;;;11.00;99.90;;;;;;5010507;28;20038;-46
2022/09/19 07:31:23;;;;;;;12.93;5.28;;;11.10;99.90;;;;;;5010481;28;20314;-48
2022/09/19 07:33:48;;;;;;;15.68;5.40;;;11.30;99.90;;;;;;5010178;28;20029;-45
2022/09/19 07:36:14;;;;;;;10.23;4.85;;;11.60;99.90;;;;;;5010627;28;20026;-48
2022/09/19 07:38:39;;;;;;;11.52;4.95;;;11.80;99.90;;;;;;5010136;28;20109;-50
2022/09/19 07:41:05;;;;;;;12.65;4.47;;;11.90;99.90;;;;;;5010469;28;20030;-46
2022/09/19 07:43:31;;;;;;;13.20;4.68;;;12.00;99.90;;;;;;5009477;28;20018;-47
2022/09/19 07:45:57;;;;;;;11.57;4.90;;;12.00;99.90;;;;;;5009725;28;20040;-50
2022/09/19 07:48:22;;;;;;;11.07;5.25;;;12.10;99.90;;;;;;5010026;28;20033;-47
2022/09/19 07:50:48;;;;;;;12.27;4.63;;;12.20;99.90;;;;;;5008770;28;20061;-49
2022/09/19 07:53:16;;;;;;;8.05;4.38;;;12.40;99.90;;;;;;5009986;28;20591;-46
2022/09/19 07:55:42;;;;;;;7.00;3.97;;;12.40;99.90;;;;;;5010035;28;20422;-47
2022/09/19 07:58:12;;;;;;;11.80;3.50;;;12.60;99.90;;;;;;5009889;28;20018;-46
2022/09/19 08:00:39;;;;;;;12.25;4.00;;;12.70;99.90;;;;;;5009839;28;20102;-48
2022/09/19 08:03:13;;;;;;;14.02;4.30;;;12.70;99.90;;;;;;5008144;28;20022;-49
2022/09/19 08:05:44;;;;;;;10.00;3.70;;;12.80;99.90;;;;;;5008647;28;20064;-47
2022/09/19 08:08:11;;;;;;;6.53;3.20;;;12.90;99.90;;;;;;5008595;28;20022;-49
2022/09/19 08:10:39;;;;;;;10.05;3.17;;;12.90;99.90;;;;;;5009703;28;20022;-49
2022/09/19 08:13:06;;;;;;;13.10;3.72;;;12.80;99.90;;;;;;5009019;28;20029;-47
2022/09/19 08:15:33;;;;;;;12.50;3.70;;;12.80;99.90;;;;;;5009377;28;20014;-47
2022/09/19 08:18:11;;;;;;;14.10;3.47;;;12.90;99.90;;;;;;5009626;28;20037;-47
2022/09/19 08:20:37;;;;;;;9.07;2.53;;;13.10;99.90;;;;;;5009560;28;20443;-51
2022/09/19 08:23:11;;;;;;;6.70;2.65;;;13.10;99.90;;;;;;5009198;28;20018;-49
2022/09/19 08:25:38;;;;;;;8.43;2.88;;;13.20;99.90;;;;;;5009226;28;20407;-48
2022/09/19 08:28:04;;;;;;;10.23;3.60;;;13.40;99.90;;;;;;5009336;28;20022;-50
2022/09/19 08:30:33;;;;;;;9.32;2.78;;;13.60;99.90;;;;;;5009037;28;20025;-44
2022/09/19 08:33:00;;;;;;;10.98;2.90;;;13.60;99.90;;;;;;5008754;28;20022;-49
2022/09/19 08:35:27;;;;;;;12.60;3.20;;;13.40;99.90;;;;;;5009300;28;20022;-47
2022/09/19 08:37:55;;;;;;;10.07;3.20;;;13.40;99.90;;;;;;5009065;28;20599;-49
2022/09/19 08:40:27;;;;;;;10.10;3.85;;;13.40;99.90;;;;;;5009213;28;20014;-48
2022/09/19 08:42:58;;;;;;;12.27;3.65;;;13.40;99.90;;;;;;5008645;28;20022;-46
2022/09/19 08:45:27;;;;;;;10.18;3.25;;;13.40;99.90;;;;;;5008866;28;20030;-47
2022/09/19 08:47:55;;;;;;;15.10;3.97;;;13.70;99.90;;;;;;5009026;28;20030;-46
2022/09/19 08:50:25;;;;;;;12.15;2.80;;;13.90;99.90;;;;;;5008371;28;20610;-46
2022/09/19 08:52:58;;;;;;;12.20;3.33;;;13.80;99.90;;;;;;5008816;28;20037;-46
2022/09/19 08:55:26;;;;;;;14.05;3.40;;;14.00;99.90;;;;;;5009120;28;20120;-46
2022/09/19 08:57:59;;;;;;;22.65;3.10;;;14.10;99.90;;;;;;5009035;28;20061;-47
2022/09/19 09:00:30;;;;;;;11.77;2.67;;;14.20;99.90;;;;;;5009034;28;20399;-48
2022/09/19 09:03:03;;;;;;;8.25;2.97;;;14.20;99.90;;;;;;5008236;28;20030;-46
2022/09/19 09:05:44;;;;;;;11.77;2.88;;;14.50;99.90;;;;;;5008583;28;20387;-46
2022/09/19 09:08:37;;;;;;;15.27;2.33;;;15.30;99.90;;;;;;5008829;28;20025;-47
2022/09/19 09:11:30;;;;;;;11.30;2.30;;;16.10;99.90;;;;;;5008882;28;20026;-48
2022/09/19 09:13:59;;;;;;;8.32;2.45;;;16.60;99.90;;;;;;5008462;28;20030;-48
2022/09/19 09:16:46;;;;;;;14.93;2.75;;;16.90;99.90;;;;;;5008692;28;20076;-50
2022/09/19 09:19:33;;;;;;;12.38;2.65;;;16.80;99.90;;;;;;5008490;28;20082;-47
2022/09/19 09:22:06;;;;;;;10.98;2.65;;;16.80;99.90;;;;;;5008809;28;20038;-48
2022/09/19 09:24:37;;;;;;;11.85;2.50;;;16.40;99.90;;;;;;5006791;28;20490;-46
2022/09/19 09:27:18;;;;;;;10.73;2.85;;;16.10;99.90;;;;;;5008739;28;20080;-49
2022/09/19 09:29:47;;;;;;;14.40;3.25;;;16.20;99.90;;;;;;5008974;28;20033;-49
2022/09/19 09:32:31;;;;;;;14.75;3.05;;;16.00;99.90;;;;;;5008503;28;20104;-50
2022/09/19 09:35:12;;;;;;;12.30;3.13;;;16.00;99.90;;;;;;5008351;28;20583;-49
2022/09/19 09:38:02;;;;;;;14.57;3.55;;;16.10;99.90;;;;;;5008539;28;20105;-47
2022/09/19 09:43:36;;;;;;;16.23;2.70;;;16.50;99.90;;;;;;5008409;28;20414;-48
2022/09/19 09:46:11;;;;;;;9.40;2.35;;;17.70;99.90;;;;;;5008365;28;20018;-50
2022/09/19 09:48:38;;;;;;;8.50;2.50;;;19.10;99.90;;;;;;5007086;28;20455;-47
2022/09/19 09:51:21;;;;;;;12.05;2.42;;;19.30;99.90;;;;;;5008692;28;20034;-48
2022/09/19 09:54:03;;;;;;;9.30;2.33;;;19.20;99.90;;;;;;5008010;28;20038;-46
2022/09/19 09:56:45;;;;;;;15.05;2.60;;;19.70;99.90;;;;;;5008827;28;20062;-48
2022/09/19 10:05:33;;;;;;;8.15;2.70;;;20.30;99.90;;;;;;5008649;28;20037;-48
2022/09/19 10:08:19;;;;;;;9.25;2.50;;;20.10;99.90;;;;;;5008732;28;20099;-49
2022/09/19 10:10:47;;;;;;;7.93;2.28;;;19.30;99.90;;;;;;5011984;28;20310;-49
2022/09/19 10:13:25;;;;;;;8.10;2.42;;;18.50;99.90;;;;;;5011233;28;20033;-47
2022/09/19 10:15:55;;;;;;;12.10;2.17;;;18.00;99.90;;;;;;5012011;28;20021;-46
2022/09/19 10:18:25;;;;;;;13.88;2.60;;;17.20;99.90;;;;;;5010608;28;20430;-47
2022/09/19 10:20:53;;;;;;;8.77;2.58;;;17.00;99.90;;;;;;5011674;28;20269;-45
2022/09/19 10:23:24;;;;;;;15.63;3.00;;;17.50;99.90;;;;;;5011323;28;20026;-48
2022/09/19 10:25:59;;;;;;;14.18;3.30;;;18.30;99.90;;;;;;5011884;28;20068;-49
2022/09/19 10:28:41;;;;;;;16.73;7.15;;;18.50;99.90;;;;;;5012015;28;20502;-49
2022/09/19 10:31:23;;;;;;;10.75;3.70;;;18.30;99.90;;;;;;5010266;28;20022;-45
2022/09/19 10:33:50;;;;;;;12.43;2.30;;;18.10;99.90;;;;;;5009495;28;20495;-46
2022/09/19 10:36:21;;;;;;;14.15;3.10;;;18.90;99.90;;;;;;5011567;28;20030;-46
2022/09/19 10:38:54;;;;;;;13.88;2.95;;;20.10;99.90;;;;;;5011857;28;20430;-47
2022/09/19 10:41:22;;;;;;;9.52;2.25;;;20.80;99.70;;;;;;5011407;28;20010;-46
2022/09/19 10:43:54;;;;;;;7.82;2.25;;;22.10;98.80;;;;;;5010894;28;20030;-47
2022/09/19 10:46:23;;;;;;;11.45;2.83;;;23.80;95.70;;;;;;5011199;28;20053;-48
2022/09/19 10:48:56;;;;;;;8.65;2.63;;;23.70;91.70;;;;;;5011265;28;20037;-46
2022/09/19 10:51:29;;;;;;;19.27;6.25;;;22.80;92.90;;;;;;5011126;28;20053;-46
2022/09/19 10:53:56;;;;;;;13.25;3.25;;;22.60;93.60;;;;;;5010756;28;20109;-47
2022/09/19 10:56:26;;;;;;;8.90;2.97;;;23.60;91.90;;;;;;5011257;28;20076;-45
2022/09/19 10:59:20;;;;;;;11.88;2.60;;;23.90;91.00;;;;;;5011260;28;20492;-47
2022/09/19 11:02:22;;;;;;;6.63;2.40;;;25.40;88.40;;;;;;5010815;28;20488;-49
2022/09/19 11:05:15;;;;;;;1.90;1.13;;;24.50;79.70;;;;;;5010897;28;20117;-47
2022/09/19 11:07:50;;;;;;;3.90;1.50;;;23.50;77.80;;;;;;5010900;28;20113;-48
2022/09/19 11:10:33;;;;;;;5.32;1.40;;;21.70;80.70;;;;;;5011101;28;20065;-47
2022/09/19 11:13:16;;;;;;;4.97;1.67;;;20.50;85.50;;;;;;5009357;28;20026;-47
2022/09/19 11:16:06;;;;;;;3.88;1.38;;;19.30;90.50;;;;;;5010951;28;20505;-47
2022/09/19 11:18:51;;;;;;;5.50;1.63;;;18.30;92.10;;;;;;5010269;28;20480;-46
2022/09/19 11:21:49;;;;;;;3.95;1.05;;;17.20;95.40;;;;;;5010670;28;20277;-45
2022/09/19 11:24:53;;;;;;;4.90;0.85;;;16.50;97.00;;;;;;5010229;28;20026;-49
2022/09/19 11:27:23;;;;;;;4.07;1.35;;;16.10;98.20;;;;;;5010123;28;20205;-47
2022/09/19 11:30:01;;;;;;;6.25;1.65;;;15.80;99.60;;;;;;5010447;28;20029;-47
2022/09/19 11:32:43;;;;;;;7.15;2.25;;;15.40;99.90;;;;;;5010050;28;20036;-49
2022/09/19 11:35:28;;;;;;;8.50;3.15;;;15.30;99.90;;;;;;5010447;28;20391;-46
2022/09/19 11:38:21;;;;;;;5.53;2.40;;;15.80;99.90;;;;;;5010288;28;20536;-47
2022/09/19 11:41:11;;;;;;;6.22;2.30;;;17.50;99.90;;;;;;5010044;28;20101;-47
2022/09/19 11:43:45;;;;;;;6.57;1.90;;;18.30;99.90;;;;;;5009853;28;20030;-49
2022/09/19 11:46:41;;;;;;;6.50;1.73;;;19.50;99.80;;;;;;5010338;28;20261;-49
2022/09/19 11:49:39;;;;;;;3.80;1.83;;;20.30;97.80;;;;;;5010168;28;20084;-47
2022/09/19 11:52:31;;;;;;;4.63;1.60;;;21.90;96.10;;;;;;5010281;28;20457;-50
2022/09/19 11:55:10;;;;;;;5.03;1.50;;;22.20;92.90;;;;;;5008037;28;20499;-46
2022/09/19 11:57:45;;;;;;;7.45;1.58;;;21.70;93.00;;;;;;5009496;28;20065;-46
2022/09/19 12:00:13;;;;;;;4.03;1.60;;;20.50;94.30;;;;;;5016095;28;20049;-46
2022/09/19 12:02:58;;;;;;;4.93;1.92;;;19.30;95.00;;;;;;5027965;28;20022;-46
2022/09/19 12:05:40;;;;;;;9.32;3.33;;;18.80;97.00;;;;;;5028441;28;20045;-46
2022/09/19 12:08:26;;;;;;;6.18;1.80;;;18.30;98.80;;;;;;5026083;28;20487;-45
2022/09/19 12:10:59;;;;;;;6.82;2.15;;;18.20;99.00;;;;;;5041494;28;20036;-47
2022/09/19 12:13:33;;;;;;;5.00;1.60;;;18.50;98.70;;;;;;5047955;28;20071;-45
2022/09/19 12:16:04;;;;;;;4.45;1.50;;;18.60;96.70;;;;;;5047734;28;20025;-46
2022/09/19 12:18:41;;;;;;;6.22;1.42;;;18.20;97.50;;;;;;5047493;28;20021;-44
2022/09/19 12:21:09;;;;;;;4.50;1.80;;;18.00;97.90;;;;;;5037666;28;20497;-46
2022/09/19 12:26:49;;;;;;;4.97;1.30;;;17.60;99.90;;;;;;5048064;28;20082;-46
2022/09/19 12:29:24;;;;;;;5.55;1.58;;;17.30;99.90;;;;;;5049821;28;20029;-45
2022/09/19 12:31:58;;;;;;;5.15;1.55;;;17.10;99.90;;;;;;5047710;28;20482;-46
2022/09/19 12:35:08;;;;;;;5.20;1.50;;;17.00;99.90;;;;;;5048656;28;20036;-45
2022/09/19 12:37:54;;;;;;;8.57;1.67;;;16.80;99.90;;;;;;5047516;28;20025;-45
2022/09/19 12:40:36;;;;;;;5.93;1.95;;;16.60;99.90;;;;;;5047559;28;20082;-45
2022/09/19 12:43:23;;;;;;;4.63;1.45;;;16.30;99.90;;;;;;5048311;28;20017;-45
2022/09/19 12:46:09;;;;;;;6.20;0.80;;;15.90;99.90;;;;;;5049200;28;20475;-46
2022/09/19 12:48:47;;;;;;;3.88;1.00;;;15.20;99.90;;;;;;5049318;28;20394;-45
2022/09/19 12:51:21;;;;;;;4.38;1.20;;;14.60;99.90;;;;;;5035978;28;20048;-45
2022/09/19 12:54:09;;;;;;;6.18;1.30;;;14.20;99.90;;;;;;5048179;28;20260;-45
2022/09/19 12:56:41;;;;;;;3.22;1.20;;;13.60;99.90;;;;;;5046133;28;20497;-46
2022/09/19 12:59:18;;;;;;;6.07;1.20;;;13.20;99.90;;;;;;5043778;28;20321;-44
2022/09/19 13:01:57;;;;;;;3.83;1.00;;;12.90;99.90;;;;;;5038653;28;20048;-45
2022/09/19 13:04:53;;;;;;;4.68;1.23;;;12.60;99.90;;;;;;5046629;28;20025;-46
2022/09/19 13:07:40;;;;;;;7.28;1.80;;;12.30;99.90;;;;;;5048692;28;20032;-45
2022/09/19 13:10:21;;;;;;;1.27;0.68;;;12.20;99.90;;;;;;5047802;28;20122;-44
2022/09/19 13:13:02;;;;;;;2.95;1.02;;;12.10;99.90;;;;;;5009409;28;20029;-45
2022/09/19 13:15:54;;;;;;;1.58;0.77;;;12.00;99.90;;;;;;5007663;28;20082;-47
2022/09/19 13:23:59;;;;;;;3.33;1.02;;;11.80;99.90;;;;;;5008677;28;20073;-45
2022/09/19 13:26:32;;;;;;;3.45;0.68;;;11.90;99.90;;;;;;5008947;28;20054;-46
2022/09/19 13:28:59;;;;;;;4.70;0.88;;;11.90;99.90;;;;;;5011296;28;20030;-47
2022/09/19 13:31:52;;;;;;;1.60;0.88;;;11.90;99.90;;;;;;5028602;28;20026;-46
2022/09/19 13:34:33;;;;;;;2.10;0.88;;;12.00;99.90;;;;;;5026980;28;20025;-47
2022/09/19 13:37:22;;;;;;;3.90;1.67;;;12.00;99.90;;;;;;5028468;28;20072;-47
2022/09/19 13:40:06;;;;;;;4.88;1.33;;;12.10;99.90;;;;;;5027130;28;20031;-49
2022/09/19 13:42:40;;;;;;;3.63;0.85;;;12.20;99.90;;;;;;5025875;28;20029;-47
2022/09/19 13:45:22;;;;;;;4.15;1.40;;;12.30;99.90;;;;;;5031488;28;20438;-47
2022/09/19 13:47:51;;;;;;;6.68;1.48;;;12.40;99.90;;;;;;5022949;28;20391;-46
2022/09/19 13:50:24;;;;;;;3.28;1.20;;;12.50;99.90;;;;;;5022109;28;20112;-48
2022/09/19 13:53:01;;;;;;;8.85;1.70;;;12.70;99.90;;;;;;5021052;28;20037;-49